createdAt,value
2018-12-22T00:01:30.257Z,10.10
2018-12-22T00:03:56.886Z,9.03
2018-12-22T00:06:23.501Z,8.63
2018-12-22T00:08:50.175Z,9.13
2018-12-22T00:11:16.802Z,10.07
2018-12-22T00:13:43.433Z,12.20
2018-12-22T00:16:17.540Z,13.87
2018-12-22T00:18:44.154Z,18.13
2018-12-22T00:21:10.822Z,15.63
2018-12-22T00:23:37.435Z,15.43
2018-12-22T00:26:11.105Z,14.03
2018-12-22T00:28:37.730Z,11.93
2018-12-22T00:31:11.750Z,10.37
2018-12-22T00:33:38.402Z,10.57
2018-12-22T00:36:05.013Z,10.00
2018-12-22T00:38:35.436Z,10.47
2018-12-22T00:41:02.080Z,8.37
2018-12-22T00:43:39.206Z,9.33
2018-12-22T00:46:05.827Z,7.57
2018-12-22T00:48:32.556Z,8.37
2018-12-22T00:51:06.472Z,7.57
2018-12-22T00:53:33.081Z,5.47
2018-12-22T00:56:03.048Z,7.67
2018-12-22T00:58:30.816Z,7.83
2018-12-22T01:00:57.733Z,10.57
2018-12-22T01:03:24.366Z,10.47
2018-12-22T01:05:54.598Z,10.27
2018-12-22T01:08:28.355Z,11.57
2018-12-22T01:10:54.964Z,10.57
2018-12-22T01:13:21.615Z,9.90
2018-12-22T01:15:48.250Z,12.80
2018-12-22T01:18:14.893Z,10.87
2018-12-22T01:20:41.510Z,12.27
2018-12-22T01:23:08.141Z,11.20
2018-12-22T01:25:34.774Z,11.17
2018-12-22T01:28:01.421Z,12.37
2018-12-22T01:30:28.046Z,9.77
2018-12-22T01:32:54.676Z,12.57
2018-12-22T01:35:21.329Z,11.40
2018-12-22T01:37:47.961Z,13.47
2018-12-22T01:40:22.213Z,11.43
2018-12-22T01:42:56.957Z,12.57
2018-12-22T01:45:30.960Z,16.53
2018-12-22T01:47:57.599Z,12.83
2018-12-22T01:50:24.210Z,13.97
2018-12-22T01:52:50.841Z,14.03
2018-12-22T01:55:18.910Z,16.50
2018-12-22T01:57:48.528Z,16.97
2018-12-22T02:00:15.198Z,16.70
2018-12-22T02:02:42.690Z,17.87
2018-12-22T02:05:09.336Z,13.80
2018-12-22T02:07:35.946Z,17.87
2018-12-22T02:10:12.927Z,10.37
2018-12-22T02:12:46.765Z,7.77
2018-12-22T02:15:13.431Z,6.30
2018-12-22T02:17:43.541Z,7.23
2018-12-22T02:20:10.162Z,7.63
2018-12-22T02:22:36.793Z,8.00
2018-12-22T02:25:05.380Z,8.80
2018-12-22T02:27:32.021Z,7.07
2018-12-22T02:29:58.662Z,5.60
2018-12-22T02:32:25.277Z,9.37
2018-12-22T02:34:53.412Z,8.90
2018-12-22T02:37:20.049Z,12.03
2018-12-22T02:39:48.349Z,9.90
2018-12-22T02:42:18.240Z,11.17
2018-12-22T02:44:44.861Z,12.43
2018-12-22T02:47:11.525Z,13.10
2018-12-22T02:49:38.141Z,11.50
2018-12-22T02:52:04.769Z,11.17
2018-12-22T02:54:31.411Z,10.67
2018-12-22T02:56:58.557Z,10.47
2018-12-22T02:59:25.191Z,10.53
2018-12-22T03:01:51.835Z,9.63
2018-12-22T03:04:18.487Z,7.63
2018-12-22T03:06:45.102Z,7.33
2018-12-22T03:09:11.746Z,5.30
2018-12-22T03:11:38.385Z,3.83
2018-12-22T03:14:05.009Z,4.27
2018-12-22T03:16:31.637Z,4.40
2018-12-22T03:18:58.703Z,5.00
2018-12-22T03:21:25.332Z,4.80
2018-12-22T03:23:51.953Z,6.07
2018-12-22T03:26:20.073Z,6.33
2018-12-22T03:28:46.715Z,4.90
2018-12-22T03:31:13.629Z,5.50
2018-12-22T03:33:40.365Z,6.33
2018-12-22T03:36:14.095Z,6.47
2018-12-22T03:38:40.729Z,6.40
2018-12-22T03:41:07.346Z,4.40
2018-12-22T03:43:33.981Z,7.10
2018-12-22T03:46:00.626Z,5.43
2018-12-22T03:48:27.245Z,6.43
2018-12-22T03:50:53.847Z,5.33
2018-12-22T03:53:20.471Z,4.30
2018-12-22T03:55:47.110Z,4.77
2018-12-22T03:58:13.720Z,4.30
2018-12-22T04:00:40.338Z,4.83
2018-12-22T04:03:14.385Z,4.90
2018-12-22T04:05:49.927Z,4.20
2018-12-22T04:08:16.631Z,4.97
2018-12-22T04:10:43.294Z,5.23
2018-12-22T04:13:16.962Z,4.83
2018-12-22T04:15:43.801Z,5.10
2018-12-22T04:18:10.456Z,5.23
2018-12-22T04:20:37.114Z,3.83
2018-12-22T04:23:03.743Z,4.53
2018-12-22T04:25:34.153Z,5.03
2018-12-22T04:28:01.128Z,5.27
2018-12-22T04:30:27.762Z,4.83
2018-12-22T04:33:01.718Z,4.00
2018-12-22T04:35:28.589Z,4.10
2018-12-22T04:37:56.655Z,5.33
2018-12-22T04:40:23.292Z,3.67
2018-12-22T04:42:49.937Z,5.03
2018-12-22T04:45:16.547Z,3.23
2018-12-22T04:47:46.256Z,5.93
2018-12-22T04:50:12.868Z,4.80
2018-12-22T04:52:39.498Z,3.53
2018-12-22T04:55:09.077Z,3.73
2018-12-22T04:57:46.061Z,2.90
2018-12-22T05:00:15.846Z,3.93
2018-12-22T05:02:42.502Z,3.40
2018-12-22T05:05:09.110Z,3.00
2018-12-22T05:07:35.747Z,2.57
2018-12-22T05:10:02.387Z,3.23
2018-12-22T05:12:29.369Z,3.00
2018-12-22T05:14:56.010Z,3.10
2018-12-22T05:17:22.685Z,3.50
2018-12-22T05:19:52.177Z,3.33
2018-12-22T05:22:26.912Z,4.57
2018-12-22T05:24:53.541Z,4.50
2018-12-22T05:27:23.181Z,4.90
2018-12-22T05:29:52.974Z,3.50
2018-12-22T05:32:19.613Z,3.63
2018-12-22T05:35:03.729Z,2.93
2018-12-22T05:37:30.381Z,2.90
2018-12-22T05:40:00.684Z,2.80
2018-12-22T05:42:27.306Z,4.00
2018-12-22T05:44:53.923Z,3.47
2018-12-22T05:47:20.574Z,3.87
2018-12-22T05:49:55.075Z,3.87
2018-12-22T05:52:21.753Z,3.63
2018-12-22T05:54:50.175Z,3.77
2018-12-22T05:57:16.818Z,3.73
2018-12-22T05:59:43.437Z,3.53
2018-12-22T06:02:10.077Z,3.43
2018-12-22T06:04:36.681Z,3.37
2018-12-22T06:07:11.084Z,3.37
2018-12-22T06:09:37.718Z,3.90
2018-12-22T06:12:04.375Z,4.53
2018-12-22T06:14:38.636Z,3.50
2018-12-22T06:17:05.269Z,3.77
2018-12-22T06:19:31.893Z,3.83
2018-12-22T06:21:58.557Z,3.70
2018-12-22T06:24:25.170Z,3.10
2018-12-22T06:26:51.773Z,4.23
2018-12-22T06:29:18.467Z,3.10
2018-12-22T06:31:45.105Z,3.37
2018-12-22T06:34:19.352Z,3.60
2018-12-22T06:36:45.976Z,2.77
2018-12-22T06:39:16.373Z,3.17
2018-12-22T06:41:43.210Z,3.97
2018-12-22T06:44:17.334Z,4.63
2018-12-22T06:46:43.977Z,3.17
2018-12-22T06:49:10.590Z,3.03
2018-12-22T06:51:37.466Z,4.80
2018-12-22T06:54:11.621Z,4.50
2018-12-22T06:56:38.244Z,3.27
2018-12-22T06:59:04.856Z,4.10
2018-12-22T07:01:31.505Z,5.23
2018-12-22T07:03:58.120Z,3.60
2018-12-22T07:06:27.708Z,3.57
2018-12-22T07:08:54.410Z,4.17
2018-12-22T07:11:24.700Z,3.37
2018-12-22T07:13:54.410Z,4.87
2018-12-22T07:16:21.026Z,4.23
2018-12-22T07:18:47.926Z,3.73
2018-12-22T07:21:14.550Z,3.80
2018-12-22T07:23:41.162Z,5.00
2018-12-22T07:26:08.042Z,4.60
2018-12-22T07:28:34.681Z,5.53
2018-12-22T07:31:04.270Z,4.17
2018-12-22T07:33:30.906Z,4.60
2018-12-22T07:35:57.773Z,4.13
2018-12-22T07:38:24.727Z,3.67
2018-12-22T07:41:08.085Z,3.43
2018-12-22T07:43:51.749Z,3.90
2018-12-22T07:46:18.402Z,3.47
2018-12-22T07:48:52.820Z,4.50
2018-12-22T07:51:19.453Z,4.77
2018-12-22T07:53:46.879Z,3.83
2018-12-22T07:56:13.524Z,4.60
2018-12-22T07:58:40.155Z,4.93
2018-12-22T08:01:06.761Z,4.03
2018-12-22T08:03:36.297Z,4.40
2018-12-22T08:06:10.252Z,4.27
2018-12-22T08:08:36.900Z,4.33
2018-12-22T08:11:03.541Z,5.00
2018-12-22T08:13:30.178Z,5.23
2018-12-22T08:15:56.835Z,3.87
2018-12-22T08:18:23.467Z,4.53
2018-12-22T08:20:50.089Z,4.40
2018-12-22T08:23:33.434Z,5.03
2018-12-22T08:26:03.524Z,4.17
2018-12-22T08:28:30.156Z,3.90
2018-12-22T08:30:56.803Z,5.23
2018-12-22T08:33:27.141Z,4.03
2018-12-22T08:35:53.765Z,4.73
2018-12-22T08:38:24.043Z,5.40
2018-12-22T08:40:54.226Z,4.03
2018-12-22T08:43:21.072Z,4.13
2018-12-22T08:45:47.913Z,5.30
2018-12-22T08:48:17.677Z,4.43
2018-12-22T08:50:52.349Z,4.57
2018-12-22T08:53:19.009Z,4.10
2018-12-22T08:55:58.739Z,5.43
2018-12-22T08:58:25.589Z,5.20
2018-12-22T09:01:00.993Z,3.57
2018-12-22T09:03:30.907Z,4.67
2018-12-22T09:06:04.950Z,4.23
2018-12-22T09:08:31.642Z,4.60
2018-12-22T09:10:58.267Z,3.83
2018-12-22T09:13:25.429Z,4.80
2018-12-22T09:15:52.060Z,3.53
2018-12-22T09:18:19.128Z,3.93
2018-12-22T09:20:52.862Z,5.70
2018-12-22T09:23:19.513Z,4.63
2018-12-22T09:25:46.154Z,4.60
2018-12-22T09:28:12.842Z,4.70
2018-12-22T09:30:47.062Z,4.67
2018-12-22T09:33:21.798Z,5.10
2018-12-22T09:35:51.762Z,5.50
2018-12-22T09:38:26.677Z,4.93
2018-12-22T09:40:53.754Z,4.10
2018-12-22T09:43:21.630Z,4.90
2018-12-22T09:45:48.516Z,4.07
2018-12-22T09:48:15.162Z,4.53
2018-12-22T09:50:41.799Z,5.33
2018-12-22T09:53:10.054Z,4.33
2018-12-22T09:55:36.793Z,4.80
2018-12-22T09:58:03.443Z,4.70
2018-12-22T10:00:33.113Z,4.70
2018-12-22T10:02:59.759Z,4.47
2018-12-22T10:05:29.858Z,3.67
2018-12-22T10:07:56.493Z,4.27
2018-12-22T10:10:26.746Z,3.63
2018-12-22T10:12:53.381Z,3.77
2018-12-22T10:15:27.597Z,4.07
2018-12-22T10:17:54.226Z,3.53
2018-12-22T10:20:24.085Z,3.97
2018-12-22T10:22:57.960Z,3.63
2018-12-22T10:25:27.696Z,4.20
2018-12-22T10:28:07.362Z,4.07
2018-12-22T10:30:34.005Z,4.00
2018-12-22T10:33:13.901Z,4.33
2018-12-22T10:35:40.540Z,4.10
2018-12-22T10:38:07.196Z,3.93
2018-12-22T10:40:33.828Z,4.30
2018-12-22T10:43:01.261Z,4.30
2018-12-22T10:45:42.644Z,3.40
2018-12-22T10:48:26.280Z,4.23
2018-12-22T10:51:00.598Z,4.13
2018-12-22T10:53:27.224Z,4.83
2018-12-22T10:55:53.854Z,4.83
2018-12-22T10:58:23.813Z,3.87
2018-12-22T11:00:50.480Z,2.93
2018-12-22T11:03:25.583Z,5.27
2018-12-22T11:06:00.433Z,4.63
2018-12-22T11:08:27.050Z,5.17
2018-12-22T11:10:53.645Z,3.53
2018-12-22T11:13:20.265Z,3.50
2018-12-22T11:15:50.681Z,3.80
2018-12-22T11:18:17.333Z,3.87
2018-12-22T11:20:43.969Z,4.07
2018-12-22T11:23:20.609Z,4.67
2018-12-22T11:26:00.319Z,4.37
2018-12-22T11:28:34.655Z,3.30
2018-12-22T11:31:06.070Z,4.27
2018-12-22T11:33:41.501Z,4.27
2018-12-22T11:36:08.552Z,4.87
2018-12-22T11:38:38.771Z,4.17
2018-12-22T11:41:05.617Z,4.03
2018-12-22T11:43:32.268Z,4.50
2018-12-22T11:46:02.683Z,3.10
2018-12-22T11:48:29.771Z,4.77
2018-12-22T11:51:04.329Z,2.70
2018-12-22T11:53:32.257Z,3.73
2018-12-22T11:56:06.394Z,4.03
2018-12-22T11:58:40.349Z,4.47
2018-12-22T12:01:10.129Z,3.73
2018-12-22T12:03:36.761Z,3.50
2018-12-22T12:08:44.673Z,4.10
2018-12-22T12:11:28.533Z,5.53
2018-12-22T12:13:56.828Z,3.77
2018-12-22T12:16:23.473Z,3.90
2018-12-22T12:18:55.853Z,4.07
2018-12-22T12:21:22.500Z,4.00
2018-12-22T12:23:52.194Z,4.87
2018-12-22T12:26:20.169Z,6.60
2018-12-22T12:28:47.032Z,4.10
2018-12-22T12:31:13.658Z,4.47
2018-12-22T12:33:40.262Z,4.63
2018-12-22T12:36:10.313Z,5.00
2018-12-22T12:38:36.949Z,4.63
2018-12-22T12:41:07.215Z,4.40
2018-12-22T12:43:33.922Z,4.07
2018-12-22T12:46:00.638Z,3.97
2018-12-22T12:48:27.286Z,5.07
2018-12-22T12:51:11.153Z,4.30
2018-12-22T12:53:41.417Z,4.37
2018-12-22T12:56:08.234Z,4.53
2018-12-22T12:58:42.073Z,5.70
2018-12-22T13:01:08.713Z,4.33
2018-12-22T13:03:42.538Z,4.57
2018-12-22T13:06:26.169Z,5.47
2018-12-22T13:08:52.835Z,6.10
2018-12-22T13:11:19.688Z,5.30
2018-12-22T13:13:46.317Z,4.80
2018-12-22T13:16:16.476Z,6.33
2018-12-22T13:18:43.120Z,6.60
2018-12-22T13:21:13.341Z,5.63
2018-12-22T13:23:41.200Z,4.33
2018-12-22T13:26:15.316Z,5.50
2018-12-22T13:28:41.937Z,5.33
2018-12-22T13:31:08.554Z,5.77
2018-12-22T13:33:35.466Z,4.53
2018-12-22T13:36:02.221Z,6.03
2018-12-22T13:38:36.058Z,4.43
2018-12-22T13:41:09.686Z,3.97
2018-12-22T13:43:43.585Z,4.80
2018-12-22T13:46:12.906Z,4.80
2018-12-22T13:48:40.058Z,5.77
2018-12-22T13:51:06.976Z,4.50
2018-12-22T13:53:33.856Z,5.87
2018-12-22T13:56:01.962Z,3.90
2018-12-22T13:58:28.814Z,4.83
2018-12-22T14:00:58.850Z,4.43
2018-12-22T14:03:29.337Z,4.67
2018-12-22T14:06:03.065Z,5.23
2018-12-22T14:08:29.689Z,6.10
2018-12-22T14:10:56.339Z,4.67
2018-12-22T14:13:33.518Z,5.90
2018-12-22T14:16:04.149Z,4.53
2018-12-22T14:18:33.043Z,3.87
2018-12-22T14:21:16.908Z,5.03
2018-12-22T14:23:51.110Z,4.17
2018-12-22T14:26:30.853Z,4.10
2018-12-22T14:28:57.492Z,4.30
2018-12-22T14:31:24.272Z,3.93
2018-12-22T14:34:12.417Z,4.17
2018-12-22T14:36:40.580Z,4.37
2018-12-22T14:39:10.382Z,4.33
2018-12-22T14:41:37.023Z,4.33
2018-12-22T14:44:03.631Z,4.27
2018-12-22T14:46:37.825Z,4.30
2018-12-22T14:49:04.717Z,2.87
2018-12-22T14:51:34.677Z,4.93
2018-12-22T14:54:01.287Z,3.27
2018-12-22T14:56:29.866Z,4.07
2018-12-22T14:59:00.098Z,5.10
2018-12-22T15:01:36.737Z,4.37
2018-12-22T15:04:03.445Z,3.97
2018-12-22T15:06:30.077Z,3.97
2018-12-22T15:08:56.785Z,3.80
2018-12-22T15:11:23.730Z,4.80
2018-12-22T15:14:00.513Z,3.67
2018-12-22T15:16:34.435Z,3.40
2018-12-22T15:19:04.278Z,4.07
2018-12-22T15:21:30.945Z,4.67
2018-12-22T15:24:08.253Z,4.03
2018-12-22T15:26:34.907Z,4.17
2018-12-22T15:29:08.936Z,4.90
2018-12-22T15:31:35.569Z,3.60
2018-12-22T15:34:02.197Z,4.00
2018-12-22T15:36:32.451Z,4.67
2018-12-22T15:39:06.475Z,5.20
2018-12-22T15:41:36.231Z,4.07
2018-12-22T15:44:02.853Z,3.47
2018-12-22T15:46:42.759Z,4.23
2018-12-22T15:49:09.660Z,3.70
2018-12-22T15:51:36.315Z,3.53
2018-12-22T15:54:06.241Z,4.60
2018-12-22T15:56:32.863Z,4.40
2018-12-22T15:58:59.473Z,5.47
2018-12-22T16:01:34.559Z,4.07
2018-12-22T16:04:01.223Z,4.13
2018-12-22T16:06:34.984Z,4.07
2018-12-22T16:09:18.476Z,3.80
2018-12-22T16:11:45.115Z,4.80
2018-12-22T16:14:11.760Z,4.57
2018-12-22T16:16:38.420Z,4.10
2018-12-22T16:19:05.037Z,3.63
2018-12-22T16:21:31.676Z,6.37
2018-12-22T16:23:58.400Z,5.60
2018-12-22T16:26:25.017Z,4.37
2018-12-22T16:29:09.154Z,4.70
2018-12-22T16:31:39.162Z,4.70
2018-12-22T16:34:05.794Z,4.10
2018-12-22T16:36:49.720Z,5.00
2018-12-22T16:39:16.557Z,4.23
2018-12-22T16:41:56.897Z,4.73
2018-12-22T16:44:23.530Z,4.53
2018-12-22T16:46:54.001Z,4.53
2018-12-22T16:49:20.824Z,4.63
2018-12-22T16:51:47.490Z,4.60
2018-12-22T16:54:14.109Z,4.37
2018-12-22T16:56:41.686Z,4.57
2018-12-22T16:59:08.308Z,4.20
2018-12-22T17:01:52.141Z,5.80
2018-12-22T17:04:27.170Z,5.37
2018-12-22T17:07:12.390Z,5.73
2018-12-22T17:09:42.756Z,5.20
2018-12-22T17:12:09.452Z,3.90
2018-12-22T17:14:36.059Z,4.10
2018-12-22T17:17:02.725Z,4.17
2018-12-22T17:19:38.102Z,3.97
2018-12-22T17:22:04.719Z,4.73
2018-12-22T17:24:35.109Z,4.30
2018-12-22T17:27:01.753Z,4.57
2018-12-22T17:29:31.654Z,3.70
2018-12-22T17:31:58.270Z,4.23
2018-12-22T17:34:39.104Z,3.87
2018-12-22T17:37:05.758Z,3.73
2018-12-22T17:39:53.466Z,4.20
2018-12-22T17:42:22.095Z,5.63
2018-12-22T17:44:48.724Z,4.33
2018-12-22T17:47:18.729Z,5.23
2018-12-22T17:49:48.777Z,5.10
2018-12-22T17:52:15.420Z,4.30
2018-12-22T17:54:42.526Z,4.53
2018-12-22T17:57:09.415Z,4.67
2018-12-22T17:59:36.085Z,3.97
2018-12-22T18:02:02.828Z,3.93
2018-12-22T18:04:29.440Z,3.93
2018-12-22T18:07:04.364Z,4.57
2018-12-22T18:09:31.012Z,3.67
2018-12-22T18:12:05.329Z,4.57
2018-12-22T18:14:31.969Z,4.30
2018-12-22T18:17:02.050Z,4.13
2018-12-22T18:19:29.253Z,4.10
2018-12-22T18:21:59.714Z,4.97
2018-12-22T18:24:26.357Z,4.27
2018-12-22T18:26:52.974Z,4.33
2018-12-22T18:29:23.321Z,5.37
2018-12-22T18:31:50.207Z,6.53
2018-12-22T18:34:16.863Z,4.63
2018-12-22T18:36:43.510Z,4.40
2018-12-22T18:39:17.549Z,5.10
2018-12-22T18:41:44.263Z,4.60
2018-12-22T18:44:25.779Z,5.07
2018-12-22T18:46:55.207Z,4.67
2018-12-22T18:49:29.125Z,4.63
2018-12-22T18:51:55.753Z,6.20
2018-12-22T18:54:23.046Z,5.57
2018-12-22T18:56:52.806Z,4.77
2018-12-22T18:59:22.681Z,4.17
2018-12-22T19:01:52.502Z,4.37
2018-12-22T19:04:22.537Z,4.50
2018-12-22T19:06:49.441Z,4.53
2018-12-22T19:09:20.205Z,4.27
2018-12-22T19:11:46.820Z,4.60
2018-12-22T19:14:13.441Z,5.13
2018-12-22T19:16:40.106Z,5.43
2018-12-22T19:19:06.735Z,4.73
2018-12-22T19:21:47.760Z,5.43
2018-12-22T19:24:21.745Z,4.40
2018-12-22T19:27:02.248Z,5.13
2018-12-22T19:29:29.583Z,5.73
2018-12-22T19:31:59.449Z,4.73
2018-12-22T19:34:26.078Z,4.83
2018-12-22T19:37:00.249Z,6.07
2018-12-22T19:39:26.916Z,5.87
2018-12-22T19:41:53.547Z,6.97
2018-12-22T19:44:20.183Z,4.43
2018-12-22T19:46:46.828Z,5.43
2018-12-22T19:49:13.469Z,5.77
2018-12-22T19:51:40.086Z,5.00
2018-12-22T19:54:06.699Z,5.80
2018-12-22T19:56:50.910Z,4.97
2018-12-22T19:59:31.613Z,4.83
2018-12-22T20:01:58.228Z,5.20
2018-12-22T20:04:24.875Z,4.97
2018-12-22T20:06:51.551Z,5.13
2018-12-22T20:09:21.339Z,4.97
2018-12-22T20:11:48.224Z,4.00
2018-12-22T20:14:14.854Z,5.63
2018-12-22T20:16:41.712Z,4.77
2018-12-22T20:19:08.353Z,3.83
2018-12-22T20:21:48.303Z,4.90
2018-12-22T20:24:31.912Z,4.83
2018-12-22T20:26:58.673Z,3.63
2018-12-22T20:29:25.294Z,5.03
2018-12-22T20:31:51.930Z,4.80
2018-12-22T20:34:18.549Z,3.67
2018-12-22T20:36:45.185Z,4.20
2018-12-22T20:39:15.149Z,3.93
2018-12-22T20:41:41.769Z,4.87
2018-12-22T20:44:10.030Z,4.73
2018-12-22T20:46:36.680Z,6.50
2018-12-22T20:49:03.304Z,6.50
2018-12-22T20:51:29.934Z,5.27
2018-12-22T20:53:56.630Z,4.93
2018-12-22T20:56:23.256Z,5.10
2018-12-22T20:58:49.908Z,3.60
2018-12-22T21:01:33.349Z,3.90
2018-12-22T21:03:59.982Z,5.13
2018-12-22T21:06:27.830Z,3.77
2018-12-22T21:09:04.532Z,3.90
2018-12-22T21:11:31.158Z,4.87
2018-12-22T21:14:05.141Z,4.40
2018-12-22T21:16:38.857Z,4.13
2018-12-22T21:19:12.602Z,5.00
2018-12-22T21:21:47.421Z,3.60
2018-12-22T21:24:14.071Z,4.20
2018-12-22T21:26:40.697Z,3.50
2018-12-22T21:29:07.318Z,3.77
2018-12-22T21:31:37.088Z,4.80
2018-12-22T21:34:03.719Z,6.50
2018-12-22T21:36:33.646Z,4.57
2018-12-22T21:39:00.306Z,4.37
2018-12-22T21:41:34.349Z,4.23
2018-12-22T21:44:00.972Z,3.97
2018-12-22T21:46:31.414Z,4.50
2018-12-22T21:48:58.021Z,5.03
2018-12-22T21:51:25.989Z,4.80
2018-12-22T21:53:52.624Z,3.40
2018-12-22T21:56:19.261Z,4.67
2018-12-22T21:58:45.918Z,3.93
2018-12-22T22:01:15.633Z,3.90
2018-12-22T22:03:42.245Z,6.53
2018-12-22T22:06:11.974Z,4.87
2018-12-22T22:08:41.777Z,4.70
2018-12-22T22:11:08.407Z,5.10
2018-12-22T22:13:36.545Z,4.20
2018-12-22T22:16:03.188Z,5.47
2018-12-22T22:18:30.401Z,5.80
2018-12-22T22:20:57.029Z,3.87
2018-12-22T22:23:23.707Z,5.03
2018-12-22T22:25:50.326Z,4.73
2018-12-22T22:28:20.014Z,4.40
2018-12-22T22:30:46.647Z,3.63
2018-12-22T22:33:13.254Z,5.40
2018-12-22T22:35:39.898Z,5.07
2018-12-22T22:38:09.838Z,4.30
2018-12-22T22:40:37.549Z,3.90
2018-12-22T22:43:04.169Z,3.83
2018-12-22T22:45:30.797Z,4.73
2018-12-22T22:47:57.452Z,4.27
2018-12-22T22:50:27.861Z,4.90
2018-12-22T22:52:54.480Z,4.50
2018-12-22T22:55:21.116Z,4.73
2018-12-22T22:57:47.721Z,4.37
2018-12-22T23:00:17.665Z,5.10
2018-12-22T23:02:44.291Z,4.30
2018-12-22T23:05:19.099Z,4.17
2018-12-22T23:07:45.714Z,5.30
2018-12-22T23:10:19.786Z,4.47
2018-12-22T23:12:46.405Z,5.20
2018-12-22T23:15:13.053Z,4.13
2018-12-22T23:17:43.273Z,3.90
2018-12-22T23:20:09.900Z,4.80
2018-12-22T23:22:44.799Z,4.33
2018-12-22T23:25:11.449Z,4.20
2018-12-22T23:27:38.055Z,4.53
2018-12-22T23:30:08.201Z,4.70
2018-12-22T23:32:34.810Z,4.60
2018-12-22T23:35:04.937Z,4.20
2018-12-22T23:37:31.592Z,4.23
2018-12-22T23:40:01.388Z,4.57
2018-12-22T23:42:27.992Z,4.83
2018-12-22T23:44:54.614Z,4.40
2018-12-22T23:47:21.249Z,5.27
2018-12-22T23:49:47.884Z,4.30
2018-12-22T23:52:31.579Z,4.57
2018-12-22T23:54:58.223Z,4.57
2018-12-22T23:57:28.681Z,5.17
